sensor_id;sensor_type;location;lat;lon;timestamp;temperature;humidity
80258;DHT22;69565;37.974;23.708;2023-05-10T00:01:06;23.00;40.60
80258;DHT22;69565;37.974;23.708;2023-05-10T00:03:32;23.10;40.60
80258;DHT22;69565;37.974;23.708;2023-05-10T00:05:58;23.00;40.50
80258;DHT22;69565;37.974;23.708;2023-05-10T00:08:23;23.10;40.60
80258;DHT22;69565;37.974;23.708;2023-05-10T00:10:49;23.10;40.60
80258;DHT22;69565;37.974;23.708;2023-05-10T00:13:15;23.00;40.50
80258;DHT22;69565;37.974;23.708;2023-05-10T00:15:41;23.00;40.50
80258;DHT22;69565;37.974;23.708;2023-05-10T00:18:07;23.10;40.60
80258;DHT22;69565;37.974;23.708;2023-05-10T00:20:32;23.00;40.50
80258;DHT22;69565;37.974;23.708;2023-05-10T00:22:58;23.10;40.60
80258;DHT22;69565;37.974;23.708;2023-05-10T00:25:24;23.00;40.60
80258;DHT22;69565;37.974;23.708;2023-05-10T00:27:49;23.00;40.60
80258;DHT22;69565;37.974;23.708;2023-05-10T00:30:15;23.00;40.60
80258;DHT22;69565;37.974;23.708;2023-05-10T00:32:41;23.00;40.80
80258;DHT22;69565;37.974;23.708;2023-05-10T00:35:07;23.00;40.70
80258;DHT22;69565;37.974;23.708;2023-05-10T00:37:33;23.00;40.70
80258;DHT22;69565;37.974;23.708;2023-05-10T00:39:59;23.00;40.70
80258;DHT22;69565;37.974;23.708;2023-05-10T00:42:25;23.00;40.80
80258;DHT22;69565;37.974;23.708;2023-05-10T00:44:50;23.00;40.80
80258;DHT22;69565;37.974;23.708;2023-05-10T00:47:17;23.00;40.80
80258;DHT22;69565;37.974;23.708;2023-05-10T00:49:43;23.00;40.80
80258;DHT22;69565;37.974;23.708;2023-05-10T00:52:09;23.00;40.80
80258;DHT22;69565;37.974;23.708;2023-05-10T00:54:35;23.00;40.90
80258;DHT22;69565;37.974;23.708;2023-05-10T00:57:01;23.00;40.80
80258;DHT22;69565;37.974;23.708;2023-05-10T00:59:28;23.00;40.80
80258;DHT22;69565;37.974;23.708;2023-05-10T01:01:54;23.00;40.80
80258;DHT22;69565;37.974;23.708;2023-05-10T01:04:20;23.00;40.70
80258;DHT22;69565;37.974;23.708;2023-05-10T01:06:51;22.90;40.60
80258;DHT22;69565;37.974;23.708;2023-05-10T01:09:16;22.90;40.60
80258;DHT22;69565;37.974;23.708;2023-05-10T01:11:43;22.90;40.60
80258;DHT22;69565;37.974;23.708;2023-05-10T01:14:09;22.90;40.60
80258;DHT22;69565;37.974;23.708;2023-05-10T01:16:38;22.90;40.50
80258;DHT22;69565;37.974;23.708;2023-05-10T01:19:25;23.00;40.60
80258;DHT22;69565;37.974;23.708;2023-05-10T01:33:57;22.90;40.40
80258;DHT22;69565;37.974;23.708;2023-05-10T01:36:38;22.90;40.50
80258;DHT22;69565;37.974;23.708;2023-05-10T01:44:20;22.90;40.40
80258;DHT22;69565;37.974;23.708;2023-05-10T01:46:56;22.90;40.40
80258;DHT22;69565;37.974;23.708;2023-05-10T01:49:26;22.90;40.40
80258;DHT22;69565;37.974;23.708;2023-05-10T01:51:54;22.80;40.30
80258;DHT22;69565;37.974;23.708;2023-05-10T01:54:24;22.90;40.30
80258;DHT22;69565;37.974;23.708;2023-05-10T01:56:56;22.90;40.30
80258;DHT22;69565;37.974;23.708;2023-05-10T01:59:28;22.90;40.20
80258;DHT22;69565;37.974;23.708;2023-05-10T02:01:58;22.90;40.20
80258;DHT22;69565;37.974;23.708;2023-05-10T02:04:25;22.90;40.20
80258;DHT22;69565;37.974;23.708;2023-05-10T02:06:53;22.90;40.20
80258;DHT22;69565;37.974;23.708;2023-05-10T02:09:20;22.80;40.20
80258;DHT22;69565;37.974;23.708;2023-05-10T02:11:48;22.90;40.20
80258;DHT22;69565;37.974;23.708;2023-05-10T02:14:14;22.90;40.30
80258;DHT22;69565;37.974;23.708;2023-05-10T02:16:41;22.80;40.20
80258;DHT22;69565;37.974;23.708;2023-05-10T02:19:10;22.90;40.20
80258;DHT22;69565;37.974;23.708;2023-05-10T02:21:39;22.80;40.10
80258;DHT22;69565;37.974;23.708;2023-05-10T02:24:05;22.90;41.20
80258;DHT22;69565;37.974;23.708;2023-05-10T02:26:33;22.90;40.20
80258;DHT22;69565;37.974;23.708;2023-05-10T02:29:02;22.80;40.20
80258;DHT22;69565;37.974;23.708;2023-05-10T02:31:30;22.80;40.20
80258;DHT22;69565;37.974;23.708;2023-05-10T02:33:57;22.80;40.20
80258;DHT22;69565;37.974;23.708;2023-05-10T02:36:25;22.80;40.20
80258;DHT22;69565;37.974;23.708;2023-05-10T02:38:53;22.80;40.20
80258;DHT22;69565;37.974;23.708;2023-05-10T02:41:20;22.80;41.20
80258;DHT22;69565;37.974;23.708;2023-05-10T02:43:50;22.80;41.20
80258;DHT22;69565;37.974;23.708;2023-05-10T02:46:16;22.80;40.20
80258;DHT22;69565;37.974;23.708;2023-05-10T02:48:42;22.80;40.30
80258;DHT22;69565;37.974;23.708;2023-05-10T02:51:08;22.80;40.20
80258;DHT22;69565;37.974;23.708;2023-05-10T02:53:36;22.80;40.20
80258;DHT22;69565;37.974;23.708;2023-05-10T02:56:13;22.80;40.20
80258;DHT22;69565;37.974;23.708;2023-05-10T02:58:39;22.70;40.20
80258;DHT22;69565;37.974;23.708;2023-05-10T03:01:05;22.80;40.20
80258;DHT22;69565;37.974;23.708;2023-05-10T03:03:33;22.80;40.20
80258;DHT22;69565;37.974;23.708;2023-05-10T03:05:58;22.80;40.20
80258;DHT22;69565;37.974;23.708;2023-05-10T03:08:24;22.80;40.10
80258;DHT22;69565;37.974;23.708;2023-05-10T03:11:09;22.80;40.10
80258;DHT22;69565;37.974;23.708;2023-05-10T03:16:16;22.80;40.10
80258;DHT22;69565;37.974;23.708;2023-05-10T03:18:58;22.80;40.10
80258;DHT22;69565;37.974;23.708;2023-05-10T03:21:28;22.80;40.10
80258;DHT22;69565;37.974;23.708;2023-05-10T03:24:08;22.80;40.00
80258;DHT22;69565;37.974;23.708;2023-05-10T03:26:37;22.80;40.00
80258;DHT22;69565;37.974;23.708;2023-05-10T03:29:05;22.80;40.10
80258;DHT22;69565;37.974;23.708;2023-05-10T03:31:32;22.70;40.00
80258;DHT22;69565;37.974;23.708;2023-05-10T03:33:57;22.70;40.00
80258;DHT22;69565;37.974;23.708;2023-05-10T03:36:23;22.80;40.00
80258;DHT22;69565;37.974;23.708;2023-05-10T03:38:49;22.70;39.90
80258;DHT22;69565;37.974;23.708;2023-05-10T03:41:15;22.70;39.90
80258;DHT22;69565;37.974;23.708;2023-05-10T03:43:41;22.80;39.90
80258;DHT22;69565;37.974;23.708;2023-05-10T03:46:07;22.80;39.90
80258;DHT22;69565;37.974;23.708;2023-05-10T03:48:33;22.80;39.80
80258;DHT22;69565;37.974;23.708;2023-05-10T03:50:58;22.80;39.80
80258;DHT22;69565;37.974;23.708;2023-05-10T03:53:24;22.80;39.80
80258;DHT22;69565;37.974;23.708;2023-05-10T03:55:50;22.70;39.70
80258;DHT22;69565;37.974;23.708;2023-05-10T03:58:16;22.70;39.80
80258;DHT22;69565;37.974;23.708;2023-05-10T04:00:42;22.70;39.70
80258;DHT22;69565;37.974;23.708;2023-05-10T04:03:13;22.70;39.70
80258;DHT22;69565;37.974;23.708;2023-05-10T04:05:39;22.70;39.60
80258;DHT22;69565;37.974;23.708;2023-05-10T04:08:05;22.80;39.60
80258;DHT22;69565;37.974;23.708;2023-05-10T04:10:31;22.70;39.60
80258;DHT22;69565;37.974;23.708;2023-05-10T04:12:57;22.80;39.70
80258;DHT22;69565;37.974;23.708;2023-05-10T04:15:23;22.70;39.60
80258;DHT22;69565;37.974;23.708;2023-05-10T04:17:49;22.80;40.70
80258;DHT22;69565;37.974;23.708;2023-05-10T04:20:16;22.70;40.00
80258;DHT22;69565;37.974;23.708;2023-05-10T04:22:41;22.70;40.40
80258;DHT22;69565;37.974;23.708;2023-05-10T04:25:08;22.70;40.50
80258;DHT22;69565;37.974;23.708;2023-05-10T04:27:34;22.70;40.40
80258;DHT22;69565;37.974;23.708;2023-05-10T04:29:59;22.70;40.20
80258;DHT22;69565;37.974;23.708;2023-05-10T04:32:25;22.70;40.20
80258;DHT22;69565;37.974;23.708;2023-05-10T04:34:51;22.70;40.10
80258;DHT22;69565;37.974;23.708;2023-05-10T04:37:17;22.80;40.20
80258;DHT22;69565;37.974;23.708;2023-05-10T04:39:43;22.80;40.10
80258;DHT22;69565;37.974;23.708;2023-05-10T04:42:09;22.80;40.00
80258;DHT22;69565;37.974;23.708;2023-05-10T04:44:35;22.80;40.00
80258;DHT22;69565;37.974;23.708;2023-05-10T04:47:01;22.80;39.90
80258;DHT22;69565;37.974;23.708;2023-05-10T04:49:28;22.80;39.90
80258;DHT22;69565;37.974;23.708;2023-05-10T04:51:55;22.80;39.90
80258;DHT22;69565;37.974;23.708;2023-05-10T04:54:20;22.80;39.80
80258;DHT22;69565;37.974;23.708;2023-05-10T04:56:46;22.80;39.70
80258;DHT22;69565;37.974;23.708;2023-05-10T04:59:12;22.80;39.70
80258;DHT22;69565;37.974;23.708;2023-05-10T05:01:38;22.80;39.70
80258;DHT22;69565;37.974;23.708;2023-05-10T05:04:04;22.80;39.60
80258;DHT22;69565;37.974;23.708;2023-05-10T05:06:30;22.90;39.60
80258;DHT22;69565;37.974;23.708;2023-05-10T05:08:56;22.90;39.70
80258;DHT22;69565;37.974;23.708;2023-05-10T05:11:22;22.90;39.50
80258;DHT22;69565;37.974;23.708;2023-05-10T05:13:48;22.90;39.40
80258;DHT22;69565;37.974;23.708;2023-05-10T05:16:17;23.00;39.40
80258;DHT22;69565;37.974;23.708;2023-05-10T05:18:43;23.10;39.30
80258;DHT22;69565;37.974;23.708;2023-05-10T05:21:16;23.20;39.10
80258;DHT22;69565;37.974;23.708;2023-05-10T05:23:42;23.20;39.00
80258;DHT22;69565;37.974;23.708;2023-05-10T05:26:08;23.40;38.80
80258;DHT22;69565;37.974;23.708;2023-05-10T05:28:34;23.40;38.70
80258;DHT22;69565;37.974;23.708;2023-05-10T05:31:03;23.50;38.50
80258;DHT22;69565;37.974;23.708;2023-05-10T05:33:29;23.50;38.30
80258;DHT22;69565;37.974;23.708;2023-05-10T05:35:55;23.60;38.30
80258;DHT22;69565;37.974;23.708;2023-05-10T05:38:20;23.60;38.20
80258;DHT22;69565;37.974;23.708;2023-05-10T05:40:46;23.70;38.10
80258;DHT22;69565;37.974;23.708;2023-05-10T05:43:12;23.70;38.00
80258;DHT22;69565;37.974;23.708;2023-05-10T05:45:37;23.80;37.90
80258;DHT22;69565;37.974;23.708;2023-05-10T05:48:03;23.80;37.80
80258;DHT22;69565;37.974;23.708;2023-05-10T05:50:29;23.90;37.60
80258;DHT22;69565;37.974;23.708;2023-05-10T05:52:55;23.90;37.50
80258;DHT22;69565;37.974;23.708;2023-05-10T05:55:21;24.00;37.40
80258;DHT22;69565;37.974;23.708;2023-05-10T05:57:47;24.00;37.30
80258;DHT22;69565;37.974;23.708;2023-05-10T06:00:13;24.10;37.20
80258;DHT22;69565;37.974;23.708;2023-05-10T06:02:39;24.10;37.00
80258;DHT22;69565;37.974;23.708;2023-05-10T06:05:05;24.20;36.90
80258;DHT22;69565;37.974;23.708;2023-05-10T06:07:31;24.20;36.80
80258;DHT22;69565;37.974;23.708;2023-05-10T06:09:57;24.20;36.70
80258;DHT22;69565;37.974;23.708;2023-05-10T06:12:23;24.30;36.70
80258;DHT22;69565;37.974;23.708;2023-05-10T06:14:48;24.40;36.60
80258;DHT22;69565;37.974;23.708;2023-05-10T06:17:14;24.40;36.30
80258;DHT22;69565;37.974;23.708;2023-05-10T06:19:40;24.60;36.20
80258;DHT22;69565;37.974;23.708;2023-05-10T06:22:05;24.70;36.00
80258;DHT22;69565;37.974;23.708;2023-05-10T06:24:31;24.80;35.70
80258;DHT22;69565;37.974;23.708;2023-05-10T06:26:57;24.80;35.50
80258;DHT22;69565;37.974;23.708;2023-05-10T06:29:25;24.90;35.30
80258;DHT22;69565;37.974;23.708;2023-05-10T06:31:51;24.90;35.30
80258;DHT22;69565;37.974;23.708;2023-05-10T06:34:17;25.00;35.10
80258;DHT22;69565;37.974;23.708;2023-05-10T06:36:43;25.10;34.90
80258;DHT22;69565;37.974;23.708;2023-05-10T06:39:08;25.20;34.80
80258;DHT22;69565;37.974;23.708;2023-05-10T06:41:34;25.30;34.60
80258;DHT22;69565;37.974;23.708;2023-05-10T06:44:00;25.30;34.40
80258;DHT22;69565;37.974;23.708;2023-05-10T06:46:26;25.40;34.30
80258;DHT22;69565;37.974;23.708;2023-05-10T06:48:51;25.60;34.10
80258;DHT22;69565;37.974;23.708;2023-05-10T06:51:17;25.70;33.90
80258;DHT22;69565;37.974;23.708;2023-05-10T06:53:43;25.80;33.70
80258;DHT22;69565;37.974;23.708;2023-05-10T06:56:09;25.90;33.50
80258;DHT22;69565;37.974;23.708;2023-05-10T06:58:34;26.00;33.30
80258;DHT22;69565;37.974;23.708;2023-05-10T07:01:04;26.10;33.10
80258;DHT22;69565;37.974;23.708;2023-05-10T07:03:31;26.20;32.90
80258;DHT22;69565;37.974;23.708;2023-05-10T07:06:06;26.20;32.80
80258;DHT22;69565;37.974;23.708;2023-05-10T07:08:33;26.30;32.70
80258;DHT22;69565;37.974;23.708;2023-05-10T07:11:04;26.40;32.60
80258;DHT22;69565;37.974;23.708;2023-05-10T07:13:33;26.40;32.40
80258;DHT22;69565;37.974;23.708;2023-05-10T07:16:00;26.50;32.50
80258;DHT22;69565;37.974;23.708;2023-05-10T07:18:27;26.60;32.30
80258;DHT22;69565;37.974;23.708;2023-05-10T07:20:53;26.60;32.10
80258;DHT22;69565;37.974;23.708;2023-05-10T07:23:19;26.70;32.00
80258;DHT22;69565;37.974;23.708;2023-05-10T07:25:49;26.70;31.80
80258;DHT22;69565;37.974;23.708;2023-05-10T07:28:17;26.80;31.70
80258;DHT22;69565;37.974;23.708;2023-05-10T07:30:44;26.90;31.60
80258;DHT22;69565;37.974;23.708;2023-05-10T07:33:11;26.90;31.50
80258;DHT22;69565;37.974;23.708;2023-05-10T07:35:37;27.00;31.30
80258;DHT22;69565;37.974;23.708;2023-05-10T07:38:03;27.00;31.20
80258;DHT22;69565;37.974;23.708;2023-05-10T07:40:29;27.00;31.20
80258;DHT22;69565;37.974;23.708;2023-05-10T07:42:56;27.10;31.10
80258;DHT22;69565;37.974;23.708;2023-05-10T07:45:22;27.10;31.00
80258;DHT22;69565;37.974;23.708;2023-05-10T07:47:49;27.20;31.00
80258;DHT22;69565;37.974;23.708;2023-05-10T07:50:15;27.20;30.90
80258;DHT22;69565;37.974;23.708;2023-05-10T07:52:41;27.10;31.00
80258;DHT22;69565;37.974;23.708;2023-05-10T07:55:07;27.00;31.10
80258;DHT22;69565;37.974;23.708;2023-05-10T07:57:34;26.80;31.20
80258;DHT22;69565;37.974;23.708;2023-05-10T08:00:00;26.70;31.50
80258;DHT22;69565;37.974;23.708;2023-05-10T08:02:26;26.60;31.70
80258;DHT22;69565;37.974;23.708;2023-05-10T08:04:51;26.50;31.80
80258;DHT22;69565;37.974;23.708;2023-05-10T08:07:17;26.50;31.90
80258;DHT22;69565;37.974;23.708;2023-05-10T08:09:43;26.50;31.80
80258;DHT22;69565;37.974;23.708;2023-05-10T08:12:09;26.50;31.90
80258;DHT22;69565;37.974;23.708;2023-05-10T08:14:35;26.40;31.90
80258;DHT22;69565;37.974;23.708;2023-05-10T08:17:02;26.40;32.00
80258;DHT22;69565;37.974;23.708;2023-05-10T08:19:29;26.40;32.00
80258;DHT22;69565;37.974;23.708;2023-05-10T08:21:54;26.40;32.00
80258;DHT22;69565;37.974;23.708;2023-05-10T08:24:22;26.40;32.00
80258;DHT22;69565;37.974;23.708;2023-05-10T08:26:47;26.30;31.90
80258;DHT22;69565;37.974;23.708;2023-05-10T08:29:14;26.30;32.10
80258;DHT22;69565;37.974;23.708;2023-05-10T08:31:40;26.20;32.10
80258;DHT22;69565;37.974;23.708;2023-05-10T08:34:06;26.10;32.20
80258;DHT22;69565;37.974;23.708;2023-05-10T08:36:31;26.00;32.30
80258;DHT22;69565;37.974;23.708;2023-05-10T08:39:03;26.00;32.40
80258;DHT22;69565;37.974;23.708;2023-05-10T08:41:28;25.90;32.40
80258;DHT22;69565;37.974;23.708;2023-05-10T08:43:56;25.80;32.40
80258;DHT22;69565;37.974;23.708;2023-05-10T08:46:31;25.80;32.40
80258;DHT22;69565;37.974;23.708;2023-05-10T08:49:02;25.80;32.40
80258;DHT22;69565;37.974;23.708;2023-05-10T08:51:31;25.80;32.40
80258;DHT22;69565;37.974;23.708;2023-05-10T08:54:00;25.80;32.50
80258;DHT22;69565;37.974;23.708;2023-05-10T08:56:26;25.80;32.50
80258;DHT22;69565;37.974;23.708;2023-05-10T08:58:52;25.80;32.40
80258;DHT22;69565;37.974;23.708;2023-05-10T09:01:18;25.80;32.50
80258;DHT22;69565;37.974;23.708;2023-05-10T09:03:46;25.80;32.60
80258;DHT22;69565;37.974;23.708;2023-05-10T09:06:13;25.80;32.50
80258;DHT22;69565;37.974;23.708;2023-05-10T09:08:41;25.80;32.50
80258;DHT22;69565;37.974;23.708;2023-05-10T09:11:11;25.80;32.50
80258;DHT22;69565;37.974;23.708;2023-05-10T09:13:37;25.80;32.40
80258;DHT22;69565;37.974;23.708;2023-05-10T09:16:03;25.80;32.50
80258;DHT22;69565;37.974;23.708;2023-05-10T09:18:29;25.80;32.40
80258;DHT22;69565;37.974;23.708;2023-05-10T09:20:55;25.80;32.50
80258;DHT22;69565;37.974;23.708;2023-05-10T09:23:21;25.80;32.50
80258;DHT22;69565;37.974;23.708;2023-05-10T09:25:46;25.80;32.50
80258;DHT22;69565;37.974;23.708;2023-05-10T09:28:12;25.80;32.50
80258;DHT22;69565;37.974;23.708;2023-05-10T09:30:39;25.80;32.50
80258;DHT22;69565;37.974;23.708;2023-05-10T09:33:05;25.80;32.50
80258;DHT22;69565;37.974;23.708;2023-05-10T09:35:32;25.80;32.50
80258;DHT22;69565;37.974;23.708;2023-05-10T09:38:04;25.80;32.50
80258;DHT22;69565;37.974;23.708;2023-05-10T09:40:30;25.80;32.50
80258;DHT22;69565;37.974;23.708;2023-05-10T09:45:24;25.70;32.30
80258;DHT22;69565;37.974;23.708;2023-05-10T09:47:50;25.80;32.50
80258;DHT22;69565;37.974;23.708;2023-05-10T09:50:16;25.70;32.30
80258;DHT22;69565;37.974;23.708;2023-05-10T09:52:50;25.70;32.30
80258;DHT22;69565;37.974;23.708;2023-05-10T09:55:18;25.70;32.30
80258;DHT22;69565;37.974;23.708;2023-05-10T09:57:46;25.80;32.40
80258;DHT22;69565;37.974;23.708;2023-05-10T10:00:19;25.70;32.30
80258;DHT22;69565;37.974;23.708;2023-05-10T10:02:55;25.70;32.30
80258;DHT22;69565;37.974;23.708;2023-05-10T10:05:21;25.80;32.30
80258;DHT22;69565;37.974;23.708;2023-05-10T10:07:46;25.70;32.30
80258;DHT22;69565;37.974;23.708;2023-05-10T10:10:14;25.70;32.20
80258;DHT22;69565;37.974;23.708;2023-05-10T10:12:41;25.70;32.20
80258;DHT22;69565;37.974;23.708;2023-05-10T10:15:08;25.70;32.20
80258;DHT22;69565;37.974;23.708;2023-05-10T10:17:35;25.70;32.20
80258;DHT22;69565;37.974;23.708;2023-05-10T10:20:03;25.70;32.20
80258;DHT22;69565;37.974;23.708;2023-05-10T10:22:30;25.70;32.20
80258;DHT22;69565;37.974;23.708;2023-05-10T10:24:56;25.80;32.30
80258;DHT22;69565;37.974;23.708;2023-05-10T10:35:50;25.70;32.20
80258;DHT22;69565;37.974;23.708;2023-05-10T10:38:17;25.70;32.20
80258;DHT22;69565;37.974;23.708;2023-05-10T10:40:43;25.70;32.30
80258;DHT22;69565;37.974;23.708;2023-05-10T10:43:26;25.70;32.30
80258;DHT22;69565;37.974;23.708;2023-05-10T10:46:12;25.70;32.20
80258;DHT22;69565;37.974;23.708;2023-05-10T10:48:39;25.60;32.20
80258;DHT22;69565;37.974;23.708;2023-05-10T10:51:06;25.60;32.30
80258;DHT22;69565;37.974;23.708;2023-05-10T10:53:32;25.60;32.30
80258;DHT22;69565;37.974;23.708;2023-05-10T10:56:09;25.60;32.30
80258;DHT22;69565;37.974;23.708;2023-05-10T10:58:36;25.60;32.50
80258;DHT22;69565;37.974;23.708;2023-05-10T11:01:19;25.60;32.60
80258;DHT22;69565;37.974;23.708;2023-05-10T11:04:18;25.60;32.60
80258;DHT22;69565;37.974;23.708;2023-05-10T11:06:36;25.50;33.60
80258;DHT22;69565;37.974;23.708;2023-05-10T11:09:10;25.40;32.70
80258;DHT22;69565;37.974;23.708;2023-05-10T11:11:58;25.50;32.90
80258;DHT22;69565;37.974;23.708;2023-05-10T11:14:26;25.40;32.80
80258;DHT22;69565;37.974;23.708;2023-05-10T11:16:53;25.40;32.90
80258;DHT22;69565;37.974;23.708;2023-05-10T11:19:19;25.40;33.00
80258;DHT22;69565;37.974;23.708;2023-05-10T11:24:16;25.40;33.20
80258;DHT22;69565;37.974;23.708;2023-05-10T11:26:42;25.40;33.10
80258;DHT22;69565;37.974;23.708;2023-05-10T11:29:08;25.40;33.20
80258;DHT22;69565;37.974;23.708;2023-05-10T11:31:34;25.40;33.20
80258;DHT22;69565;37.974;23.708;2023-05-10T11:34:03;25.40;33.20
80258;DHT22;69565;37.974;23.708;2023-05-10T11:36:33;25.40;33.20
80258;DHT22;69565;37.974;23.708;2023-05-10T11:38:59;25.40;33.30
80258;DHT22;69565;37.974;23.708;2023-05-10T11:41:29;25.40;33.30
80258;DHT22;69565;37.974;23.708;2023-05-10T11:44:31;25.40;33.30
80258;DHT22;69565;37.974;23.708;2023-05-10T11:46:59;25.40;33.40
80258;DHT22;69565;37.974;23.708;2023-05-10T11:49:26;25.40;33.60
80258;DHT22;69565;37.974;23.708;2023-05-10T11:51:51;25.40;33.60
80258;DHT22;69565;37.974;23.708;2023-05-10T11:54:17;25.40;33.60
80258;DHT22;69565;37.974;23.708;2023-05-10T11:56:43;25.40;33.70
80258;DHT22;69565;37.974;23.708;2023-05-10T11:59:10;25.40;33.70
80258;DHT22;69565;37.974;23.708;2023-05-10T12:01:36;25.40;33.80
80258;DHT22;69565;37.974;23.708;2023-05-10T12:04:02;25.30;33.80
80258;DHT22;69565;37.974;23.708;2023-05-10T12:06:29;25.40;33.90
80258;DHT22;69565;37.974;23.708;2023-05-10T12:08:57;25.40;34.00
80258;DHT22;69565;37.974;23.708;2023-05-10T12:11:28;25.40;34.00
80258;DHT22;69565;37.974;23.708;2023-05-10T12:13:54;25.40;34.10
80258;DHT22;69565;37.974;23.708;2023-05-10T12:16:25;25.30;34.00
80258;DHT22;69565;37.974;23.708;2023-05-10T12:18:52;25.40;34.20
80258;DHT22;69565;37.974;23.708;2023-05-10T12:21:20;25.30;34.10
80258;DHT22;69565;37.974;23.708;2023-05-10T12:23:48;25.30;34.10
80258;DHT22;69565;37.974;23.708;2023-05-10T12:26:15;25.30;34.20
80258;DHT22;69565;37.974;23.708;2023-05-10T12:28:41;25.30;34.20
80258;DHT22;69565;37.974;23.708;2023-05-10T12:31:07;25.30;34.20
80258;DHT22;69565;37.974;23.708;2023-05-10T12:33:41;25.30;34.20
80258;DHT22;69565;37.974;23.708;2023-05-10T12:36:09;25.30;34.20
80258;DHT22;69565;37.974;23.708;2023-05-10T12:38:43;25.30;34.30
80258;DHT22;69565;37.974;23.708;2023-05-10T12:41:10;25.30;34.30
80258;DHT22;69565;37.974;23.708;2023-05-10T12:43:37;25.30;34.30
80258;DHT22;69565;37.974;23.708;2023-05-10T12:46:17;25.30;34.30
80258;DHT22;69565;37.974;23.708;2023-05-10T12:48:44;25.30;34.30
80258;DHT22;69565;37.974;23.708;2023-05-10T12:51:11;25.30;34.40
80258;DHT22;69565;37.974;23.708;2023-05-10T12:53:42;25.30;34.40
80258;DHT22;69565;37.974;23.708;2023-05-10T12:56:11;25.30;34.40
80258;DHT22;69565;37.974;23.708;2023-05-10T12:58:37;25.30;34.50
80258;DHT22;69565;37.974;23.708;2023-05-10T13:01:04;25.30;34.50
80258;DHT22;69565;37.974;23.708;2023-05-10T13:03:30;25.30;34.50
80258;DHT22;69565;37.974;23.708;2023-05-10T13:05:55;25.20;34.40
80258;DHT22;69565;37.974;23.708;2023-05-10T13:08:21;25.20;34.40
80258;DHT22;69565;37.974;23.708;2023-05-10T13:10:47;25.20;34.50
80258;DHT22;69565;37.974;23.708;2023-05-10T13:13:13;25.20;34.60
80258;DHT22;69565;37.974;23.708;2023-05-10T13:15:39;25.20;34.60
80258;DHT22;69565;37.974;23.708;2023-05-10T13:18:05;25.20;34.60
80258;DHT22;69565;37.974;23.708;2023-05-10T13:20:30;25.20;34.70
80258;DHT22;69565;37.974;23.708;2023-05-10T13:22:56;25.20;34.70
80258;DHT22;69565;37.974;23.708;2023-05-10T13:25:22;25.20;34.80
80258;DHT22;69565;37.974;23.708;2023-05-10T13:27:48;25.20;34.80
80258;DHT22;69565;37.974;23.708;2023-05-10T13:30:14;25.20;34.80
80258;DHT22;69565;37.974;23.708;2023-05-10T13:32:40;25.10;34.80
80258;DHT22;69565;37.974;23.708;2023-05-10T13:35:07;25.20;34.90
80258;DHT22;69565;37.974;23.708;2023-05-10T13:37:33;25.10;34.90
80258;DHT22;69565;37.974;23.708;2023-05-10T13:40:02;25.10;34.90
80258;DHT22;69565;37.974;23.708;2023-05-10T13:42:29;25.10;36.00
80258;DHT22;69565;37.974;23.708;2023-05-10T13:44:55;25.10;35.10
80258;DHT22;69565;37.974;23.708;2023-05-10T13:47:21;25.10;35.00
80258;DHT22;69565;37.974;23.708;2023-05-10T13:49:47;25.10;35.10
80258;DHT22;69565;37.974;23.708;2023-05-10T13:52:13;25.10;35.10
80258;DHT22;69565;37.974;23.708;2023-05-10T13:54:39;25.10;35.30
80258;DHT22;69565;37.974;23.708;2023-05-10T13:57:05;25.00;35.20
80258;DHT22;69565;37.974;23.708;2023-05-10T13:59:32;25.00;35.40
80258;DHT22;69565;37.974;23.708;2023-05-10T14:01:58;25.00;35.40
80258;DHT22;69565;37.974;23.708;2023-05-10T14:04:24;25.00;35.40
80258;DHT22;69565;37.974;23.708;2023-05-10T14:06:50;25.00;35.40
80258;DHT22;69565;37.974;23.708;2023-05-10T14:09:16;25.00;35.40
80258;DHT22;69565;37.974;23.708;2023-05-10T14:11:42;25.00;35.40
80258;DHT22;69565;37.974;23.708;2023-05-10T14:14:09;25.00;35.40
80258;DHT22;69565;37.974;23.708;2023-05-10T14:16:35;25.00;35.40
80258;DHT22;69565;37.974;23.708;2023-05-10T14:19:00;25.00;35.40
80258;DHT22;69565;37.974;23.708;2023-05-10T14:21:27;25.00;35.40
80258;DHT22;69565;37.974;23.708;2023-05-10T14:23:55;25.00;35.40
80258;DHT22;69565;37.974;23.708;2023-05-10T14:26:21;25.00;35.50
80258;DHT22;69565;37.974;23.708;2023-05-10T14:28:47;25.00;35.50
80258;DHT22;69565;37.974;23.708;2023-05-10T14:31:13;24.90;35.50
80258;DHT22;69565;37.974;23.708;2023-05-10T14:33:40;24.90;35.60
80258;DHT22;69565;37.974;23.708;2023-05-10T14:36:06;24.90;35.60
80258;DHT22;69565;37.974;23.708;2023-05-10T14:38:32;24.90;35.70
80258;DHT22;69565;37.974;23.708;2023-05-10T14:40:58;24.90;35.80
80258;DHT22;69565;37.974;23.708;2023-05-10T14:43:24;24.90;35.70
80258;DHT22;69565;37.974;23.708;2023-05-10T14:45:49;24.90;35.70
80258;DHT22;69565;37.974;23.708;2023-05-10T14:48:15;24.90;35.80
80258;DHT22;69565;37.974;23.708;2023-05-10T14:50:43;24.90;35.90
80258;DHT22;69565;37.974;23.708;2023-05-10T14:53:09;24.90;35.80
80258;DHT22;69565;37.974;23.708;2023-05-10T14:55:35;24.80;35.80
80258;DHT22;69565;37.974;23.708;2023-05-10T14:58:02;24.90;35.90
80258;DHT22;69565;37.974;23.708;2023-05-10T15:00:29;24.80;35.90
80258;DHT22;69565;37.974;23.708;2023-05-10T15:02:55;24.80;36.00
80258;DHT22;69565;37.974;23.708;2023-05-10T15:05:20;24.80;36.00
80258;DHT22;69565;37.974;23.708;2023-05-10T15:07:46;24.80;36.10
80258;DHT22;69565;37.974;23.708;2023-05-10T15:10:12;24.80;36.10
80258;DHT22;69565;37.974;23.708;2023-05-10T15:12:39;24.80;36.20
80258;DHT22;69565;37.974;23.708;2023-05-10T15:15:05;24.70;36.20
80258;DHT22;69565;37.974;23.708;2023-05-10T15:17:32;24.70;36.20
80258;DHT22;69565;37.974;23.708;2023-05-10T15:19:57;24.70;36.30
80258;DHT22;69565;37.974;23.708;2023-05-10T15:22:23;24.60;36.30
80258;DHT22;69565;37.974;23.708;2023-05-10T15:24:49;24.60;36.50
80258;DHT22;69565;37.974;23.708;2023-05-10T15:27:15;24.60;36.50
80258;DHT22;69565;37.974;23.708;2023-05-10T15:29:41;24.60;36.50
80258;DHT22;69565;37.974;23.708;2023-05-10T15:32:07;24.50;36.50
80258;DHT22;69565;37.974;23.708;2023-05-10T15:34:32;24.50;36.50
80258;DHT22;69565;37.974;23.708;2023-05-10T15:36:58;24.50;36.50
80258;DHT22;69565;37.974;23.708;2023-05-10T15:39:24;24.50;36.60
80258;DHT22;69565;37.974;23.708;2023-05-10T15:41:50;24.50;36.60
80258;DHT22;69565;37.974;23.708;2023-05-10T15:44:16;24.50;36.60
80258;DHT22;69565;37.974;23.708;2023-05-10T15:46:42;24.50;36.70
80258;DHT22;69565;37.974;23.708;2023-05-10T15:49:08;24.40;36.70